createdAt,value
2018-08-04T00:00:23.844Z,3.97
2018-08-04T00:02:54.241Z,4.10
2018-08-04T00:05:25.285Z,3.87
2018-08-04T00:07:55.866Z,4.37
2018-08-04T00:10:26.209Z,4.20
2018-08-04T00:12:57.612Z,4.20
2018-08-04T00:15:28.303Z,3.83
2018-08-04T00:17:58.945Z,3.80
2018-08-04T00:20:29.882Z,3.93
2018-08-04T00:23:00.603Z,3.57
2018-08-04T00:25:30.938Z,3.80
2018-08-04T00:28:01.475Z,4.13
2018-08-04T00:30:32.346Z,4.27
2018-08-04T00:33:02.972Z,3.73
2018-08-04T00:35:34.575Z,4.00
2018-08-04T00:38:06.233Z,3.73
2018-08-04T00:40:37.198Z,4.57
2018-08-04T00:43:07.579Z,4.07
2018-08-04T00:45:38.279Z,4.27
2018-08-04T00:48:08.961Z,4.23
2018-08-04T00:50:39.644Z,4.07
2018-08-04T00:53:10.872Z,3.80
2018-08-04T00:55:41.194Z,3.97
2018-08-04T00:58:12.167Z,4.60
2018-08-04T01:00:42.822Z,4.43
2018-08-04T01:03:14.070Z,4.47
2018-08-04T01:05:44.697Z,4.47
2018-08-04T01:08:15.929Z,4.17
2018-08-04T01:10:46.844Z,4.67
2018-08-04T01:13:17.849Z,4.10
2018-08-04T01:15:48.244Z,4.07
2018-08-04T01:18:19.332Z,4.10
2018-08-04T01:20:50.288Z,3.93
2018-08-04T01:23:21.155Z,4.07
2018-08-04T01:25:52.196Z,4.30
2018-08-04T01:28:23.124Z,4.40
2018-08-04T01:30:53.979Z,4.50
2018-08-04T01:33:24.882Z,4.37
2018-08-04T01:35:56.335Z,4.23
2018-08-04T01:38:26.937Z,4.70
2018-08-04T01:40:57.834Z,4.53
2018-08-04T01:43:28.611Z,4.77
2018-08-04T01:45:59.387Z,4.73
2018-08-04T01:48:30.464Z,4.77
2018-08-04T01:51:00.864Z,4.77
2018-08-04T01:53:31.345Z,4.67
2018-08-04T01:56:02.216Z,5.27
2018-08-04T01:58:33.101Z,4.97
2018-08-04T02:01:03.780Z,4.67
2018-08-04T02:03:34.148Z,4.87
2018-08-04T02:06:04.533Z,4.87
2018-08-04T02:08:34.776Z,4.80
2018-08-04T02:11:05.150Z,4.63
2018-08-04T02:13:41.680Z,4.80
2018-08-04T02:16:12.050Z,4.70
2018-08-04T02:18:42.608Z,4.80
2018-08-04T02:21:12.971Z,4.80
2018-08-04T02:23:43.015Z,4.80
2018-08-04T02:26:13.871Z,5.00
2018-08-04T02:28:44.261Z,4.73
2018-08-04T02:31:14.866Z,4.73
2018-08-04T02:33:44.941Z,4.87
2018-08-04T02:36:15.157Z,4.97
2018-08-04T02:38:45.844Z,5.17
2018-08-04T02:41:16.176Z,4.73
2018-08-04T02:43:47.127Z,4.90
2018-08-04T02:46:17.787Z,4.90
2018-08-04T02:48:48.496Z,4.90
2018-08-04T02:51:18.845Z,4.73
2018-08-04T02:53:49.680Z,4.70
2018-08-04T02:56:20.298Z,4.90
2018-08-04T02:58:51.451Z,5.10
2018-08-04T03:01:22.083Z,5.83
2018-08-04T03:03:52.794Z,5.23
2018-08-04T03:06:23.648Z,5.17
2018-08-04T03:08:54.475Z,5.30
2018-08-04T03:11:24.915Z,5.10
2018-08-04T03:13:56.404Z,5.00
2018-08-04T03:16:26.444Z,5.33
2018-08-04T03:18:59.864Z,5.00
2018-08-04T03:21:31.483Z,4.60
2018-08-04T03:24:02.675Z,4.47
2018-08-04T03:26:33.720Z,5.03
2018-08-04T03:29:04.882Z,4.80
2018-08-04T03:31:35.913Z,5.47
2018-08-04T03:34:06.624Z,4.97
2018-08-04T03:36:37.624Z,5.07
2018-08-04T03:39:09.225Z,5.50
2018-08-04T03:41:40.013Z,5.50
2018-08-04T03:44:10.432Z,5.20
2018-08-04T03:46:41.507Z,5.60
2018-08-04T03:49:12.220Z,5.17
2018-08-04T03:51:43.116Z,5.97
2018-08-04T03:54:13.780Z,5.77
2018-08-04T03:56:44.108Z,5.43
2018-08-04T03:59:14.544Z,5.43
2018-08-04T04:01:44.913Z,5.83
2018-08-04T04:04:15.290Z,5.63
2018-08-04T04:06:45.903Z,5.53
2018-08-04T04:09:16.684Z,5.93
2018-08-04T04:11:47.620Z,5.80
2018-08-04T04:14:17.989Z,6.27
2018-08-04T04:16:49.211Z,6.17
2018-08-04T04:19:20.083Z,5.80
2018-08-04T04:21:50.675Z,5.90
2018-08-04T04:24:21.377Z,6.30
2018-08-04T04:26:52.052Z,5.27
2018-08-04T04:29:22.949Z,5.80
2018-08-04T04:31:54.070Z,5.43
2018-08-04T04:34:25.509Z,5.67
2018-08-04T04:36:56.172Z,6.43
2018-08-04T04:39:27.000Z,5.70
2018-08-04T04:41:57.327Z,6.13
2018-08-04T04:44:28.033Z,5.97
2018-08-04T04:46:58.688Z,6.80
2018-08-04T04:49:29.625Z,6.40
2018-08-04T04:52:00.230Z,6.33
2018-08-04T04:54:30.895Z,6.57
2018-08-04T04:57:01.601Z,6.20
2018-08-04T04:59:32.902Z,5.90
2018-08-04T05:02:03.243Z,6.40
2018-08-04T05:04:33.653Z,5.70
2018-08-04T05:07:03.690Z,6.37
2018-08-04T05:09:34.189Z,6.23
2018-08-04T05:12:04.761Z,5.80
2018-08-04T05:14:35.587Z,6.00
2018-08-04T05:17:06.497Z,6.03
2018-08-04T05:19:36.866Z,5.83
2018-08-04T05:22:07.328Z,6.13
2018-08-04T05:24:37.700Z,6.83
2018-08-04T05:27:08.621Z,6.40
2018-08-04T05:29:38.694Z,6.23
2018-08-04T05:32:09.416Z,6.10
2018-08-04T05:34:39.734Z,6.80
2018-08-04T05:37:09.986Z,6.80
2018-08-04T05:39:40.623Z,6.40
2018-08-04T05:42:10.954Z,6.07
2018-08-04T05:44:42.133Z,6.40
2018-08-04T05:47:13.372Z,6.63
2018-08-04T05:49:43.991Z,6.80
2018-08-04T05:52:14.559Z,6.63
2018-08-04T05:54:45.240Z,6.77
2018-08-04T05:57:16.149Z,6.90
2018-08-04T05:59:47.035Z,6.97
2018-08-04T06:02:17.935Z,6.93
2018-08-04T06:04:48.556Z,7.10
2018-08-04T06:07:19.187Z,7.37
2018-08-04T06:09:50.063Z,7.30
2018-08-04T06:12:20.401Z,6.83
2018-08-04T06:14:51.832Z,7.27
2018-08-04T06:17:22.965Z,7.27
2018-08-04T06:19:53.621Z,7.50
2018-08-04T06:22:24.480Z,6.63
2018-08-04T06:24:55.730Z,7.00
2018-08-04T06:27:26.560Z,7.97
2018-08-04T06:29:57.262Z,7.23
2018-08-04T06:32:27.832Z,7.40
2018-08-04T06:34:58.833Z,7.23
2018-08-04T06:37:29.196Z,7.50
2018-08-04T06:39:59.808Z,7.43
2018-08-04T06:42:30.599Z,6.73
2018-08-04T06:45:01.887Z,6.85
2018-08-04T06:47:32.799Z,7.00
2018-08-04T06:50:03.845Z,6.87
2018-08-04T06:52:35.048Z,6.75
2018-08-04T06:55:06.806Z,6.78
2018-08-04T06:57:38.220Z,6.80
2018-08-04T07:00:09.467Z,6.47
2018-08-04T07:02:40.237Z,6.45
2018-08-04T07:05:11.408Z,6.12
2018-08-04T07:07:42.348Z,5.83
2018-08-04T07:10:14.027Z,6.67
2018-08-04T07:12:44.803Z,6.58
2018-08-04T07:15:15.924Z,5.85
2018-08-04T07:17:47.070Z,6.30
2018-08-04T07:20:18.500Z,6.05
2018-08-04T07:22:49.658Z,6.15
2018-08-04T07:25:20.156Z,6.50
2018-08-04T07:27:50.912Z,6.00
2018-08-04T07:30:22.080Z,6.40
2018-08-04T07:32:53.289Z,6.33
2018-08-04T07:35:24.220Z,6.42
2018-08-04T07:37:55.012Z,6.22
2018-08-04T07:40:25.947Z,6.17
2018-08-04T07:42:57.017Z,5.62
2018-08-04T07:45:28.184Z,6.10
2018-08-04T07:47:59.338Z,5.95
2018-08-04T07:50:31.025Z,6.03
2018-08-04T07:53:02.635Z,5.72
2018-08-04T07:55:34.264Z,6.10
2018-08-04T07:58:05.097Z,5.47
2018-08-04T08:00:35.444Z,6.10
2018-08-04T08:03:05.688Z,5.83
2018-08-04T08:05:36.567Z,6.00
2018-08-04T08:08:07.455Z,5.50
2018-08-04T08:10:38.531Z,5.70
2018-08-04T08:13:09.653Z,5.77
2018-08-04T08:15:41.063Z,6.60
2018-08-04T08:18:12.855Z,5.87
2018-08-04T08:20:43.833Z,5.47
2018-08-04T08:23:14.491Z,5.70
2018-08-04T08:26:07.158Z,6.20
2018-08-04T08:28:38.239Z,5.47
2018-08-04T08:31:09.250Z,6.10
2018-08-04T08:33:41.485Z,5.47
2018-08-04T08:36:12.620Z,5.50
2018-08-04T08:38:43.263Z,4.83
2018-08-04T08:41:14.176Z,5.23
2018-08-04T08:43:44.803Z,5.47
2018-08-04T08:46:15.839Z,5.63
2018-08-04T08:48:46.404Z,5.67
2018-08-04T08:51:17.840Z,5.57
2018-08-04T08:53:48.990Z,5.13
2018-08-04T08:56:20.151Z,5.37
2018-08-04T08:58:51.047Z,5.50
2018-08-04T09:01:22.099Z,5.20
2018-08-04T09:03:53.179Z,5.63
2018-08-04T09:06:23.857Z,5.33
2018-08-04T09:08:54.991Z,5.10
2018-08-04T09:11:25.648Z,5.07
2018-08-04T09:13:56.136Z,4.67
2018-08-04T09:16:27.081Z,4.97
2018-08-04T09:18:57.984Z,5.40
2018-08-04T09:21:29.513Z,5.30
2018-08-04T09:24:00.970Z,4.80
2018-08-04T09:26:32.110Z,5.20
2018-08-04T09:29:03.135Z,5.67
2018-08-04T09:31:34.528Z,5.50
2018-08-04T09:34:05.403Z,5.40
2018-08-04T09:36:37.077Z,5.63
2018-08-04T09:39:13.032Z,5.50
2018-08-04T09:41:43.879Z,5.83
2018-08-04T09:44:14.727Z,5.63
2018-08-04T09:46:45.383Z,5.83
2018-08-04T09:49:16.295Z,5.90
2018-08-04T09:51:47.472Z,6.10
2018-08-04T09:54:18.826Z,5.92
2018-08-04T09:56:49.993Z,6.20
2018-08-04T09:59:21.380Z,6.00
2018-08-04T10:01:56.448Z,6.20
2018-08-04T10:04:35.073Z,5.92
2018-08-04T10:07:07.469Z,5.87
2018-08-04T10:09:38.800Z,5.22
2018-08-04T10:12:09.930Z,5.58
2018-08-04T10:14:42.240Z,6.00
2018-08-04T10:17:13.346Z,5.78
2018-08-04T10:19:44.507Z,6.15
2018-08-04T10:22:22.708Z,5.95
2018-08-04T10:24:54.678Z,6.75
2018-08-04T10:27:25.819Z,6.35
2018-08-04T10:29:57.510Z,6.28
2018-08-04T10:32:28.559Z,6.25
2018-08-04T10:34:59.924Z,6.35
2018-08-04T10:37:31.119Z,6.35
2018-08-04T10:40:02.321Z,6.12
2018-08-04T10:42:33.465Z,6.35
2018-08-04T10:45:05.457Z,6.12
2018-08-04T10:47:41.757Z,6.17
2018-08-04T10:50:21.849Z,6.10
2018-08-04T10:52:53.490Z,5.65
2018-08-04T10:55:24.673Z,6.05
2018-08-04T10:57:56.063Z,5.75
2018-08-04T11:00:27.492Z,5.45
2018-08-04T11:02:58.644Z,4.72
2018-08-04T11:05:29.854Z,5.50
2018-08-04T11:08:01.023Z,4.78
2018-08-04T11:10:32.924Z,5.28
2018-08-04T11:13:04.704Z,5.70
2018-08-04T11:15:35.574Z,5.72
2018-08-04T11:18:06.391Z,5.70
2018-08-04T11:20:37.499Z,5.80
2018-08-04T11:23:08.449Z,5.15
2018-08-04T11:25:39.548Z,6.03
2018-08-04T11:28:10.610Z,5.60
2018-08-04T11:30:47.711Z,6.00
2018-08-04T11:33:19.374Z,5.42
2018-08-04T11:35:50.793Z,4.87
2018-08-04T11:38:21.974Z,5.50
2018-08-04T11:40:57.918Z,4.70
2018-08-04T11:43:38.141Z,5.53
2018-08-04T11:46:18.478Z,5.22
2018-08-04T11:48:50.427Z,5.17
2018-08-04T11:51:22.148Z,4.97
2018-08-04T11:53:53.423Z,4.95
2018-08-04T11:56:24.916Z,5.25
2018-08-04T11:58:56.349Z,5.37
2018-08-04T12:01:27.801Z,5.30
2018-08-04T12:04:05.783Z,5.03
2018-08-04T12:06:37.460Z,4.50
2018-08-04T12:09:11.989Z,4.60
2018-08-04T12:11:43.273Z,4.58
2018-08-04T12:14:14.140Z,4.65
2018-08-04T12:16:44.908Z,5.00
2018-08-04T12:19:15.841Z,5.28
2018-08-04T12:21:46.959Z,5.20
2018-08-04T12:24:18.107Z,4.62
2018-08-04T12:26:49.253Z,4.50
2018-08-04T12:29:20.646Z,4.70
2018-08-04T12:31:51.785Z,4.15
2018-08-04T12:34:22.693Z,4.30
2018-08-04T12:36:55.757Z,4.58
2018-08-04T12:39:27.989Z,4.75
2018-08-04T12:41:59.103Z,4.80
2018-08-04T12:44:30.309Z,5.03
2018-08-04T12:47:01.449Z,4.33
2018-08-04T12:49:39.537Z,3.98
2018-08-04T12:52:18.581Z,4.20
2018-08-04T12:54:50.171Z,3.92
2018-08-04T12:57:22.127Z,4.08
2018-08-04T12:59:59.940Z,3.75
2018-08-04T13:02:31.888Z,4.37
2018-08-04T13:05:03.125Z,4.40
2018-08-04T13:07:34.004Z,4.40
2018-08-04T13:10:05.684Z,3.90
2018-08-04T13:12:37.702Z,4.35
2018-08-04T13:15:09.596Z,4.67
2018-08-04T13:17:40.314Z,4.28
2018-08-04T13:20:11.113Z,3.95
2018-08-04T13:22:42.373Z,3.90
2018-08-04T13:25:13.628Z,4.00
2018-08-04T13:27:50.240Z,4.20
2018-08-04T13:30:23.017Z,4.08
2018-08-04T13:32:53.784Z,4.12
2018-08-04T13:35:25.028Z,4.00
2018-08-04T13:37:56.359Z,4.50
2018-08-04T13:40:27.617Z,4.03
2018-08-04T13:42:58.621Z,4.22
2018-08-04T13:45:37.672Z,4.25
2018-08-04T13:48:16.065Z,4.70
2018-08-04T13:50:53.067Z,4.53
2018-08-04T13:53:24.763Z,4.70
2018-08-04T13:55:55.433Z,4.87
2018-08-04T13:58:33.258Z,4.55
2018-08-04T14:01:05.136Z,4.90
2018-08-04T14:03:36.052Z,4.70
2018-08-04T14:06:07.812Z,4.33
2018-08-04T14:08:38.462Z,4.60
2018-08-04T14:11:15.091Z,3.95
2018-08-04T14:13:46.800Z,4.37
2018-08-04T14:16:17.711Z,4.15
2018-08-04T14:18:48.555Z,4.62
2018-08-04T14:21:20.098Z,4.08
2018-08-04T14:23:51.436Z,4.37
2018-08-04T14:26:22.927Z,4.47
2018-08-04T14:28:54.952Z,4.55
2018-08-04T14:31:25.869Z,4.42
2018-08-04T14:33:57.146Z,4.17
2018-08-04T14:36:28.124Z,4.10
2018-08-04T14:38:59.519Z,4.85
2018-08-04T14:41:31.211Z,4.47
2018-08-04T14:44:02.344Z,4.45
2018-08-04T14:46:39.573Z,4.65
2018-08-04T14:49:11.196Z,4.40
2018-08-04T14:51:42.095Z,4.42
2018-08-04T14:54:13.398Z,4.67
2018-08-04T14:56:45.065Z,4.37
2018-08-04T14:59:16.885Z,4.33
2018-08-04T15:01:56.492Z,5.00
2018-08-04T15:04:34.187Z,4.40
2018-08-04T15:07:06.593Z,4.12
2018-08-04T15:09:37.282Z,3.98
2018-08-04T15:12:08.758Z,4.05
2018-08-04T15:14:40.160Z,3.92
2018-08-04T15:17:11.136Z,4.12
2018-08-04T15:19:42.804Z,4.08
2018-08-04T15:22:14.286Z,3.62
2018-08-04T15:24:49.734Z,4.20
2018-08-04T15:27:22.908Z,3.95
2018-08-04T15:30:00.427Z,4.30
2018-08-04T15:32:38.478Z,3.83
2018-08-04T15:35:11.470Z,3.35
2018-08-04T15:37:43.165Z,3.55
2018-08-04T15:40:14.342Z,3.90
2018-08-04T15:42:46.445Z,3.27
2018-08-04T15:45:17.558Z,3.35
2018-08-04T15:47:49.224Z,3.10
2018-08-04T15:50:21.529Z,3.40
2018-08-04T15:52:53.933Z,3.05
2018-08-04T15:55:25.942Z,3.20
2018-08-04T15:57:57.642Z,3.37
2018-08-04T16:00:29.705Z,2.77
2018-08-04T16:03:03.122Z,3.52
2018-08-04T16:05:35.185Z,3.35
2018-08-04T16:08:11.619Z,3.60
2018-08-04T16:10:43.219Z,3.20
2018-08-04T16:13:14.397Z,3.72
2018-08-04T16:15:45.832Z,3.47
2018-08-04T16:18:16.677Z,3.90
2018-08-04T16:20:47.713Z,4.30
2018-08-04T16:23:19.154Z,3.75
2018-08-04T16:25:50.068Z,3.90
2018-08-04T16:28:21.460Z,3.70
2018-08-04T16:30:52.836Z,3.67
2018-08-04T16:33:23.986Z,3.90
2018-08-04T16:35:55.138Z,3.92
2018-08-04T16:38:26.056Z,3.40
2018-08-04T16:40:57.202Z,3.83
2018-08-04T16:43:36.962Z,3.40
2018-08-04T16:46:15.050Z,3.85
2018-08-04T16:48:49.760Z,3.37
2018-08-04T16:51:20.863Z,3.45
2018-08-04T16:53:53.007Z,3.55
2018-08-04T16:56:28.867Z,3.60
2018-08-04T16:59:00.444Z,3.62
2018-08-04T17:01:31.344Z,3.70
2018-08-04T17:04:02.729Z,3.60
2018-08-04T17:06:33.426Z,3.75
2018-08-04T17:09:06.908Z,3.87
2018-08-04T17:11:38.067Z,3.25
2018-08-04T17:14:09.380Z,3.85
2018-08-04T17:16:40.161Z,3.20
2018-08-04T17:19:10.966Z,3.20
2018-08-04T17:21:41.855Z,3.22
2018-08-04T17:24:12.488Z,3.15
2018-08-04T17:26:43.052Z,2.92
2018-08-04T17:29:14.201Z,3.27
2018-08-04T17:31:45.386Z,3.42
2018-08-04T17:34:16.504Z,3.12
2018-08-04T17:36:47.665Z,3.30
2018-08-04T17:39:18.316Z,3.65
2018-08-04T17:41:55.400Z,3.58
2018-08-04T17:44:27.074Z,3.33
2018-08-04T17:46:58.635Z,3.40
2018-08-04T17:49:29.572Z,3.67
2018-08-04T17:52:00.707Z,3.72
2018-08-04T17:54:40.260Z,3.42
2018-08-04T17:57:19.241Z,3.85
2018-08-04T17:59:58.742Z,3.30
2018-08-04T18:02:30.583Z,3.37
2018-08-04T18:05:02.188Z,3.45
2018-08-04T18:07:38.116Z,3.20
2018-08-04T18:10:09.923Z,3.80
2018-08-04T18:12:41.101Z,3.70
2018-08-04T18:15:12.444Z,3.22
2018-08-04T18:17:43.588Z,3.72
2018-08-04T18:20:14.716Z,3.72
2018-08-04T18:22:45.907Z,3.12
2018-08-04T18:25:17.509Z,3.52
2018-08-04T18:27:48.694Z,3.95
2018-08-04T18:30:19.610Z,3.80
2018-08-04T18:32:50.541Z,3.35
2018-08-04T18:35:21.791Z,3.58
2018-08-04T18:38:01.737Z,3.90
2018-08-04T18:40:33.915Z,3.90
2018-08-04T18:43:04.837Z,4.03
2018-08-04T18:45:35.967Z,4.00
2018-08-04T18:48:07.832Z,4.37
2018-08-04T18:50:38.940Z,3.85
2018-08-04T18:53:09.911Z,3.85
2018-08-04T18:55:41.272Z,9.78
2018-08-04T18:58:12.434Z,4.58
2018-08-04T19:00:43.349Z,4.33
2018-08-04T19:03:15.204Z,4.00
2018-08-04T19:05:46.191Z,4.17
2018-08-04T19:08:17.232Z,4.10
2018-08-04T19:10:48.366Z,4.42
2018-08-04T19:13:20.326Z,4.58
2018-08-04T19:15:51.962Z,4.47
2018-08-04T19:18:23.077Z,4.03
2018-08-04T19:20:54.011Z,3.87
2018-08-04T19:23:25.444Z,4.55
2018-08-04T19:25:56.833Z,5.55
2018-08-04T19:28:28.133Z,4.95
2018-08-04T19:30:59.472Z,3.77
2018-08-04T19:33:30.687Z,4.03
2018-08-04T19:36:01.327Z,3.37
2018-08-04T19:38:32.470Z,3.05
2018-08-04T19:41:04.473Z,3.00
2018-08-04T19:43:35.980Z,2.98
2018-08-04T19:46:06.987Z,2.90
2018-08-04T19:48:38.467Z,2.80
2018-08-04T19:51:09.359Z,2.58
2018-08-04T19:53:40.520Z,2.42
2018-08-04T19:56:11.724Z,2.12
2018-08-04T19:58:42.960Z,2.10
2018-08-04T20:01:14.110Z,1.82
2018-08-04T20:03:45.041Z,2.30
2018-08-04T20:06:15.937Z,2.00
2018-08-04T20:08:47.196Z,1.90
2018-08-04T20:11:18.530Z,2.30
2018-08-04T20:13:49.704Z,2.20
2018-08-04T20:16:20.588Z,1.98
2018-08-04T20:18:51.768Z,1.75
2018-08-04T20:21:23.207Z,1.87
2018-08-04T20:23:54.158Z,1.95
2018-08-04T20:26:25.291Z,1.42
2018-08-04T20:28:56.467Z,1.90
2018-08-04T20:31:27.578Z,2.20
2018-08-04T20:33:58.223Z,2.80
2018-08-04T20:36:29.761Z,2.83
2018-08-04T20:39:00.923Z,2.90
2018-08-04T20:41:31.817Z,3.10
2018-08-04T20:44:02.749Z,3.50
2018-08-04T20:46:34.011Z,2.92
2018-08-04T20:49:04.977Z,2.80
2018-08-04T20:51:36.452Z,2.50
2018-08-04T20:54:07.758Z,3.02
2018-08-04T20:56:38.216Z,2.90
2018-08-04T20:59:08.898Z,2.90
2018-08-04T21:02:06.634Z,2.80
2018-08-04T21:04:38.471Z,2.70
2018-08-04T21:07:08.837Z,2.20
2018-08-04T21:09:39.208Z,2.20
2018-08-04T21:12:09.805Z,1.90
2018-08-04T21:14:40.184Z,2.27
2018-08-04T21:17:10.533Z,2.20
2018-08-04T21:19:41.381Z,1.90
2018-08-04T21:22:11.733Z,1.90
2018-08-04T21:24:42.947Z,2.03
2018-08-04T21:27:13.596Z,1.93
2018-08-04T21:29:44.980Z,2.13
2018-08-04T21:32:15.023Z,2.03
2018-08-04T21:34:44.998Z,1.63
2018-08-04T21:37:15.539Z,1.90
2018-08-04T21:39:45.655Z,1.80
2018-08-04T21:42:16.392Z,1.63
2018-08-04T21:44:46.766Z,1.70
2018-08-04T21:47:18.067Z,2.73
2018-08-04T21:49:48.756Z,3.70
2018-08-04T21:52:19.289Z,3.27
2018-08-04T21:54:50.674Z,3.63
2018-08-04T21:57:21.133Z,3.37
2018-08-04T21:59:51.395Z,3.33
2018-08-04T22:02:21.736Z,3.43
2018-08-04T22:04:52.344Z,4.03
2018-08-04T22:07:49.628Z,3.70
2018-08-04T22:10:20.257Z,2.90
2018-08-04T22:12:50.319Z,2.60
2018-08-04T22:15:21.015Z,3.03
2018-08-04T22:17:51.112Z,3.00
2018-08-04T22:20:22.326Z,3.20
2018-08-04T22:22:53.009Z,2.90
2018-08-04T22:25:24.660Z,2.53
2018-08-04T22:27:55.787Z,2.10
2018-08-04T22:30:26.531Z,2.10
2018-08-04T22:32:57.286Z,1.70
2018-08-04T22:35:28.270Z,1.80
2018-08-04T22:37:58.964Z,1.80
2018-08-04T22:40:29.671Z,1.80
2018-08-04T22:43:00.490Z,1.80
2018-08-04T22:46:13.894Z,1.80
2018-08-04T22:48:45.779Z,1.77
2018-08-04T22:51:24.703Z,1.50
2018-08-04T22:53:55.639Z,1.67
2018-08-04T22:56:26.542Z,1.67
2018-08-04T22:58:57.120Z,1.70
2018-08-04T23:01:27.198Z,1.60
2018-08-04T23:04:06.182Z,1.43
2018-08-04T23:06:45.206Z,1.50
2018-08-04T23:09:23.425Z,1.30
2018-08-04T23:11:54.798Z,1.53
2018-08-04T23:14:25.147Z,1.70
2018-08-04T23:16:55.540Z,1.87
2018-08-04T23:19:26.124Z,1.53
2018-08-04T23:21:56.520Z,1.80
2018-08-04T23:24:26.732Z,1.33
2018-08-04T23:26:58.351Z,1.60
2018-08-04T23:29:29.032Z,1.40
2018-08-04T23:31:59.403Z,1.47
2018-08-04T23:34:29.750Z,1.57
2018-08-04T23:37:00.503Z,1.73
2018-08-04T23:39:30.831Z,1.33
2018-08-04T23:42:01.200Z,1.63
2018-08-04T23:44:31.539Z,1.40
2018-08-04T23:47:01.916Z,1.60
2018-08-04T23:49:32.548Z,1.53
2018-08-04T23:52:03.466Z,1.70
2018-08-04T23:54:33.802Z,1.37
2018-08-04T23:57:04.464Z,1.27
2018-08-04T23:59:34.800Z,1.10
